^^
Meteo Knjazevac Station Historical Data
Daily Summary for May 22, 2022 Units:  Both    English   Metric
Daily Weekly Monthly Yearly Custom
  High: Low: Average:
Temperature: 80.2 °F /  26.8 °C 55.6 °F /  13.1 °C 68.4 °F /  20.2 °C
Dew Point: 60.5 °F /  15.8 °C 48.3 °F /  9.1 °C 55.4 °F /  13 °C
Humidity: 81% 45% 65%
Wind Speed: 12mph /  19.3km/h - 3.6mph /  5.8km/h
Wind Gust: 22mph /  35.4km/h - -
Wind- - WSW
Pressure: 30.03 in /  1016.8 hPa 29.93 in /  1013.4 hPa -
Precipitation: 0.00 in /  0 mm    
Historical Graphs
 
 
Tabular Data for May 22, 2022
Time Temperature Dew Point Pressure Wind Wind Speed Wind Gust Humidity Rainfall Rate (Hourly) solar Conditions
00:00 68.7 °F /  20.4 °C 58.5 °F /  14.7 °C 30.02in /  1016.5hPa North 1mph /  1.6km/h 4mph /  6.4km/h 70% 0.00in /  0mm 0 W/m2
00:10 68.7 °F /  20.4 °C 59.3 °F /  15.2 °C 30.02in /  1016.5hPa ESE 2mph /  3.2km/h 4mph /  6.4km/h 72% 0.00in /  0mm 0 W/m2
00:20 68.2 °F /  20.1 °C 58.8 °F /  14.9 °C 30.02in /  1016.5hPa North 2mph /  3.2km/h 4mph /  6.4km/h 72% 0.00in /  0mm 0 W/m2
00:30 67.9 °F /  19.9 °C 58.9 °F /  14.9 °C 30.02in /  1016.5hPa NNW 3mph /  4.8km/h 6mph /  9.7km/h 73% 0.00in /  0mm 0 W/m2
00:40 67.6 °F /  19.8 °C 58.7 °F /  14.8 °C 30.01in /  1016.1hPa NNE 3mph /  4.8km/h 6mph /  9.7km/h 73% 0.00in /  0mm 0 W/m2
00:50 67.4 °F /  19.7 °C 58.8 °F /  14.9 °C 30.01in /  1016.1hPa NNE 2mph /  3.2km/h 5mph /  8km/h 74% 0.00in /  0mm 0 W/m2
01:00 67.2 °F /  19.6 °C 58.6 °F /  14.8 °C 30.01in /  1016.1hPa NE 2mph /  3.2km/h 6mph /  9.7km/h 74% 0.00in /  0mm 0 W/m2
01:10 66.7 °F /  19.3 °C 58.5 °F /  14.7 °C 30.01in /  1016.1hPa WNW 1mph /  1.6km/h 3mph /  4.8km/h 75% 0.00in /  0mm 0 W/m2
01:20 66.5 °F /  19.2 °C 58.3 °F /  14.6 °C 30.01in /  1016.1hPa Calm   3mph /  4.8km/h 75% 0.00in /  0mm 0 W/m2
01:30 66.1 °F /  18.9 °C 58 °F /  14.4 °C 30.01in /  1016.1hPa North 1mph /  1.6km/h 2mph /  3.2km/h 75% 0.00in /  0mm 0 W/m2
01:40 65.8 °F /  18.8 °C 58.4 °F /  14.7 °C 30.01in /  1016.1hPa NE 1mph /  1.6km/h 3mph /  4.8km/h 77% 0.00in /  0mm 0 W/m2
01:50 65.5 °F /  18.6 °C 58.1 °F /  14.5 °C 30.01in /  1016.1hPa Calm   2mph /  3.2km/h 77% 0.00in /  0mm 0 W/m2
02:00 65 °F /  18.3 °C 58 °F /  14.4 °C 30.00in /  1015.8hPa WNW 1mph /  1.6km/h 3mph /  4.8km/h 78% 0.00in /  0mm 0 W/m2
02:10 64.8 °F /  18.2 °C 57.7 °F /  14.3 °C 30.00in /  1015.8hPa NE 2mph /  3.2km/h 3mph /  4.8km/h 78% 0.00in /  0mm 0 W/m2
02:20 64.8 °F /  18.2 °C 57.7 °F /  14.3 °C 30.00in /  1015.8hPa North 1mph /  1.6km/h 3mph /  4.8km/h 78% 0.00in /  0mm 0 W/m2
02:30 64.4 °F /  18 °C 57.4 °F /  14.1 °C 30.00in /  1015.8hPa Calm   2mph /  3.2km/h 78% 0.00in /  0mm 0 W/m2
02:40 64 °F /  17.8 °C 57 °F /  13.9 °C 30.00in /  1015.8hPa WSW 1mph /  1.6km/h 3mph /  4.8km/h 78% 0.00in /  0mm 0 W/m2
02:50 63.6 °F /  17.6 °C 57 °F /  13.9 °C 30.00in /  1015.8hPa Calm   3mph /  4.8km/h 79% 0.00in /  0mm 0 W/m2
03:00 63.3 °F /  17.4 °C 56.7 °F /  13.7 °C 30.00in /  1015.8hPa Calm   2mph /  3.2km/h 79% 0.00in /  0mm 0 W/m2
03:10 63 °F /  17.2 °C 56.3 °F /  13.5 °C 30.00in /  1015.8hPa Calm   2mph /  3.2km/h 79% 0.00in /  0mm 0 W/m2
03:20 62.6 °F /  17 °C 56 °F /  13.3 °C 30.00in /  1015.8hPa WNW 1mph /  1.6km/h 2mph /  3.2km/h 79% 0.00in /  0mm 0 W/m2
03:30 62.2 °F /  16.8 °C 55.6 °F /  13.1 °C 30.00in /  1015.8hPa NNW 1mph /  1.6km/h 4mph /  6.4km/h 79% 0.00in /  0mm 0 W/m2
03:40 61.9 °F /  16.6 °C 54.6 °F /  12.6 °C 30.00in /  1015.8hPa Calm   3mph /  4.8km/h 77% 0.00in /  0mm 0 W/m2
03:50 61.3 °F /  16.3 °C 54.7 °F /  12.6 °C 30.00in /  1015.8hPa WNW 1mph /  1.6km/h 2mph /  3.2km/h 79% 0.00in /  0mm 0 W/m2
04:00 61 °F /  16.1 °C 54.1 °F /  12.3 °C 30.00in /  1015.8hPa WNW 1mph /  1.6km/h 2mph /  3.2km/h 78% 0.00in /  0mm 0 W/m2
04:10 60.4 °F /  15.8 °C 53.9 °F /  12.2 °C 30.00in /  1015.8hPa Calm   2mph /  3.2km/h 79% 0.00in /  0mm 0 W/m2
04:20 60.1 °F /  15.6 °C 53.5 °F /  11.9 °C 30.00in /  1015.8hPa Calm   2mph /  3.2km/h 79% 0.00in /  0mm 0 W/m2
04:30 59.6 °F /  15.3 °C 53.1 °F /  11.7 °C 30.00in /  1015.8hPa Calm   2mph /  3.2km/h 79% 0.00in /  0mm 0 W/m2
04:40 59.3 °F /  15.2 °C 52.4 °F /  11.3 °C 30.00in /  1015.8hPa Calm   1mph /  1.6km/h 78% 0.00in /  0mm 0 W/m2
04:50 59 °F /  15 °C 52.5 °F /  11.4 °C 30.00in /  1015.8hPa North 1mph /  1.6km/h 2mph /  3.2km/h 79% 0.00in /  0mm 0 W/m2
05:00 58.7 °F /  14.8 °C 52.2 °F /  11.2 °C 30.01in /  1016.1hPa NNW 1mph /  1.6km/h 2mph /  3.2km/h 79% 0.00in /  0mm 1 W/m2
05:10 58.4 °F /  14.7 °C 51.9 °F /  11.1 °C 30.01in /  1016.1hPa West 1mph /  1.6km/h 2mph /  3.2km/h 79% 0.00in /  0mm 3 W/m2
05:20 58.1 °F /  14.5 °C 51.3 °F /  10.7 °C 30.01in /  1016.1hPa West 2mph /  3.2km/h 4mph /  6.4km/h 78% 0.00in /  0mm 5 W/m2
05:30 58.1 °F /  14.5 °C 51.3 °F /  10.7 °C 30.01in /  1016.1hPa NNW 2mph /  3.2km/h 4mph /  6.4km/h 78% 0.00in /  0mm 6 W/m2
05:40 58.4 °F /  14.7 °C 51.2 °F /  10.7 °C 30.02in /  1016.5hPa North 1mph /  1.6km/h 3mph /  4.8km/h 77% 0.00in /  0mm 9 W/m2
05:50 58.5 °F /  14.7 °C 51.6 °F /  10.9 °C 30.02in /  1016.5hPa WNW 1mph /  1.6km/h 4mph /  6.4km/h 78% 0.00in /  0mm 13 W/m2
06:00 58.6 °F /  14.8 °C 51.8 °F /  11 °C 30.02in /  1016.5hPa Calm   2mph /  3.2km/h 78% 0.00in /  0mm 22 W/m2
06:10 58.8 °F /  14.9 °C 52 °F /  11.1 °C 30.02in /  1016.5hPa ENE 1mph /  1.6km/h 4mph /  6.4km/h 78% 0.00in /  0mm 27 W/m2
06:20 59.2 °F /  15.1 °C 52.3 °F /  11.3 °C 30.02in /  1016.5hPa Calm   3mph /  4.8km/h 78% 0.00in /  0mm 47 W/m2
06:30 59.5 °F /  15.3 °C 52.7 °F /  11.5 °C 30.02in /  1016.5hPa North 1mph /  1.6km/h 2mph /  3.2km/h 78% 0.00in /  0mm 63 W/m2
06:40 60.1 °F /  15.6 °C 53.2 °F /  11.8 °C 30.02in /  1016.5hPa West 2mph /  3.2km/h 3mph /  4.8km/h 78% 0.00in /  0mm 62 W/m2
06:50 60.1 °F /  15.6 °C 53.2 °F /  11.8 °C 30.02in /  1016.5hPa Calm   3mph /  4.8km/h 78% 0.00in /  0mm 39 W/m2
07:00 60.3 °F /  15.7 °C 53 °F /  11.7 °C 30.02in /  1016.5hPa Calm   2mph /  3.2km/h 77% 0.00in /  0mm 21 W/m2
07:10 60.4 °F /  15.8 °C 53.5 °F /  11.9 °C 30.02in /  1016.5hPa Calm   2mph /  3.2km/h 78% 0.00in /  0mm 24 W/m2
07:20 60.6 °F /  15.9 °C 54.1 °F /  12.3 °C 30.02in /  1016.5hPa Calm   3mph /  4.8km/h 79% 0.00in /  0mm 27 W/m2
07:30 60.6 °F /  15.9 °C 54.4 °F /  12.4 °C 30.03in /  1016.8hPa NW 1mph /  1.6km/h 4mph /  6.4km/h 80% 0.00in /  0mm 39 W/m2
07:40 60.8 °F /  16 °C 54.9 °F /  12.7 °C 30.03in /  1016.8hPa NNE 2mph /  3.2km/h 4mph /  6.4km/h 81% 0.00in /  0mm 68 W/m2
07:50 60.7 °F /  15.9 °C 54.5 °F /  12.5 °C 30.03in /  1016.8hPa West 1mph /  1.6km/h 4mph /  6.4km/h 80% 0.00in /  0mm 99 W/m2
08:00 61.1 °F /  16.2 °C 54.9 °F /  12.7 °C 30.03in /  1016.8hPa Calm   3mph /  4.8km/h 80% 0.00in /  0mm 113 W/m2
08:10 61.5 °F /  16.4 °C 54.9 °F /  12.7 °C 30.03in /  1016.8hPa Calm   2mph /  3.2km/h 79% 0.00in /  0mm 226 W/m2
08:20 62.3 °F /  16.8 °C 56.1 °F /  13.4 °C 30.03in /  1016.8hPa SSE 2mph /  3.2km/h 4mph /  6.4km/h 80% 0.00in /  0mm 218 W/m2
08:30 63.1 °F /  17.3 °C 56.8 °F /  13.8 °C 30.03in /  1016.8hPa SW 2mph /  3.2km/h 3mph /  4.8km/h 80% 0.00in /  0mm 302 W/m2
08:40 64.9 °F /  18.3 °C 58.2 °F /  14.6 °C 30.02in /  1016.5hPa SW 2mph /  3.2km/h 5mph /  8km/h 79% 0.00in /  0mm 600 W/m2
08:50 66.9 °F /  19.4 °C 59.5 °F /  15.3 °C 30.03in /  1016.8hPa SW 5mph /  8km/h 8mph /  12.9km/h 77% 0.00in /  0mm 507 W/m2
09:00 68.6 °F /  20.3 °C 60 °F /  15.6 °C 30.03in /  1016.8hPa SW 6mph /  9.7km/h 9mph /  14.5km/h 74% 0.00in /  0mm 532 W/m2
09:10 69.6 °F /  20.9 °C 59.4 °F /  15.2 °C 30.03in /  1016.8hPa SW 7mph /  11.3km/h 11mph /  17.7km/h 70% 0.00in /  0mm 669 W/m2
09:20 70.4 °F /  21.3 °C 59.4 °F /  15.2 °C 30.02in /  1016.5hPa SW 5mph /  8km/h 10mph /  16.1km/h 68% 0.00in /  0mm 710 W/m2
09:30 71.7 °F /  22.1 °C 59.7 °F /  15.4 °C 30.02in /  1016.5hPa SW 5mph /  8km/h 10mph /  16.1km/h 66% 0.00in /  0mm 728 W/m2
09:40 73 °F /  22.8 °C 59.6 °F /  15.3 °C 30.02in /  1016.5hPa SW 6mph /  9.7km/h 9mph /  14.5km/h 63% 0.00in /  0mm 758 W/m2
09:50 73.2 °F /  22.9 °C 59.9 °F /  15.5 °C 30.01in /  1016.1hPa SW 7mph /  11.3km/h 10mph /  16.1km/h 63% 0.00in /  0mm 396 W/m2
10:00 72.8 °F /  22.7 °C 60.3 °F /  15.7 °C 30.01in /  1016.1hPa SW 7mph /  11.3km/h 9mph /  14.5km/h 65% 0.00in /  0mm 226 W/m2
10:10 72.3 °F /  22.4 °C 59.9 °F /  15.5 °C 30.01in /  1016.1hPa SW 7mph /  11.3km/h 10mph /  16.1km/h 65% 0.00in /  0mm 316 W/m2
10:20 72.9 °F /  22.7 °C 59.5 °F /  15.3 °C 30.01in /  1016.1hPa SW 5mph /  8km/h 12mph /  19.3km/h 63% 0.00in /  0mm 841 W/m2
10:30 74.6 °F /  23.7 °C 59.8 °F /  15.4 °C 30.00in /  1015.8hPa SSW 2mph /  3.2km/h 8mph /  12.9km/h 60% 0.00in /  0mm 662 W/m2
10:40 75.6 °F /  24.2 °C 60.2 °F /  15.7 °C 30.00in /  1015.8hPa SSW 5mph /  8km/h 9mph /  14.5km/h 59% 0.00in /  0mm 428 W/m2
10:50 75.6 °F /  24.2 °C 58.8 °F /  14.9 °C 30.00in /  1015.8hPa WSW 6mph /  9.7km/h 11mph /  17.7km/h 56% 0.00in /  0mm 679 W/m2
11:00 75.7 °F /  24.3 °C 57.4 °F /  14.1 °C 30.00in /  1015.8hPa WSW 7mph /  11.3km/h 13mph /  20.9km/h 53% 0.00in /  0mm 275 W/m2
11:10 75.1 °F /  23.9 °C 56.8 °F /  13.8 °C 30.00in /  1015.8hPa West 8mph /  12.9km/h 13mph /  20.9km/h 53% 0.00in /  0mm 266 W/m2
11:20 74.5 °F /  23.6 °C 56.7 °F /  13.7 °C 30.00in /  1015.8hPa West 8mph /  12.9km/h 17mph /  27.4km/h 54% 0.00in /  0mm 269 W/m2
11:30 73.9 °F /  23.3 °C 56.8 °F /  13.8 °C 30.00in /  1015.8hPa West 6mph /  9.7km/h 19mph /  30.6km/h 55% 0.00in /  0mm 417 W/m2
11:40 74.1 °F /  23.4 °C 56.4 °F /  13.6 °C 30.00in /  1015.8hPa West 8mph /  12.9km/h 15mph /  24.1km/h 54% 0.00in /  0mm 407 W/m2
11:50 74.1 °F /  23.4 °C 56.4 °F /  13.6 °C 29.99in /  1015.5hPa WNW 6mph /  9.7km/h 16mph /  25.7km/h 54% 0.00in /  0mm 388 W/m2
12:00 74.3 °F /  23.5 °C 56.1 °F /  13.4 °C 29.99in /  1015.5hPa WSW 6mph /  9.7km/h 14mph /  22.5km/h 53% 0.00in /  0mm 346 W/m2
12:10 74.5 °F /  23.6 °C 56.2 °F /  13.4 °C 29.99in /  1015.5hPa WSW 6mph /  9.7km/h 12mph /  19.3km/h 53% 0.00in /  0mm 267 W/m2
12:20 74.5 °F /  23.6 °C 55.7 °F /  13.2 °C 29.99in /  1015.5hPa West 8mph /  12.9km/h 14mph /  22.5km/h 52% 0.00in /  0mm 357 W/m2
12:30 74.3 °F /  23.5 °C 56.1 °F /  13.4 °C 29.99in /  1015.5hPa West 8mph /  12.9km/h 15mph /  24.1km/h 53% 0.00in /  0mm 304 W/m2
12:40 73.9 °F /  23.3 °C 55.7 °F /  13.2 °C 29.99in /  1015.5hPa West 7mph /  11.3km/h 17mph /  27.4km/h 53% 0.00in /  0mm 249 W/m2
12:50 73.6 °F /  23.1 °C 54.9 °F /  12.7 °C 29.98in /  1015.1hPa West 10mph /  16.1km/h 18mph /  29km/h 52% 0.00in /  0mm 245 W/m2
13:00 73.6 °F /  23.1 °C 55.4 °F /  13 °C 29.98in /  1015.1hPa WSW 10mph /  16.1km/h 20mph /  32.2km/h 53% 0.00in /  0mm 238 W/m2
13:10 73.3 °F /  22.9 °C 55.6 °F /  13.1 °C 29.98in /  1015.1hPa WSW 8mph /  12.9km/h 20mph /  32.2km/h 54% 0.00in /  0mm 199 W/m2
13:20 73.3 °F /  22.9 °C 56.2 °F /  13.4 °C 29.98in /  1015.1hPa WSW 7mph /  11.3km/h 12mph /  19.3km/h 55% 0.00in /  0mm 210 W/m2
13:30 73.2 °F /  22.9 °C 55.6 °F /  13.1 °C 29.98in /  1015.1hPa WSW 7mph /  11.3km/h 14mph /  22.5km/h 54% 0.00in /  0mm 274 W/m2
13:40 73.6 °F /  23.1 °C 55.9 °F /  13.3 °C 29.97in /  1014.8hPa WSW 7mph /  11.3km/h 12mph /  19.3km/h 54% 0.00in /  0mm 557 W/m2
13:50 74.1 °F /  23.4 °C 56.9 °F /  13.8 °C 29.97in /  1014.8hPa WSW 8mph /  12.9km/h 14mph /  22.5km/h 55% 0.00in /  0mm 397 W/m2
14:00 74.3 °F /  23.5 °C 57.1 °F /  13.9 °C 29.97in /  1014.8hPa WSW 6mph /  9.7km/h 12mph /  19.3km/h 55% 0.00in /  0mm 417 W/m2
14:10 74.8 °F /  23.8 °C 57.5 °F /  14.2 °C 29.97in /  1014.8hPa West 7mph /  11.3km/h 14mph /  22.5km/h 55% 0.00in /  0mm 409 W/m2
14:20 75.4 °F /  24.1 °C 58.1 °F /  14.5 °C 29.96in /  1014.4hPa WSW 7mph /  11.3km/h 14mph /  22.5km/h 55% 0.00in /  0mm 534 W/m2
14:30 75.6 °F /  24.2 °C 59.3 °F /  15.2 °C 29.96in /  1014.4hPa WSW 6mph /  9.7km/h 10mph /  16.1km/h 57% 0.00in /  0mm 457 W/m2
14:40 75.9 °F /  24.4 °C 60.5 °F /  15.8 °C 29.95in /  1014.1hPa SW 3mph /  4.8km/h 13mph /  20.9km/h 59% 0.00in /  0mm 822 W/m2
14:50 77.5 °F /  25.3 °C 59.5 °F /  15.3 °C 29.95in /  1014.1hPa West 9mph /  14.5km/h 17mph /  27.4km/h 54% 0.00in /  0mm 802 W/m2
15:00 78.1 °F /  25.6 °C 59.6 °F /  15.3 °C 29.95in /  1014.1hPa WSW 10mph /  16.1km/h 20mph /  32.2km/h 53% 0.00in /  0mm 781 W/m2
15:10 78.4 °F /  25.8 °C 59.8 °F /  15.4 °C 29.94in /  1013.8hPa WSW 8mph /  12.9km/h 21mph /  33.8km/h 53% 0.00in /  0mm 758 W/m2
15:20 78.3 °F /  25.7 °C 59.2 °F /  15.1 °C 29.94in /  1013.8hPa WSW 8mph /  12.9km/h 19mph /  30.6km/h 52% 0.00in /  0mm 247 W/m2
15:30 79.1 °F /  26.2 °C 58.3 °F /  14.6 °C 29.94in /  1013.8hPa West 10mph /  16.1km/h 17mph /  27.4km/h 49% 0.00in /  0mm 710 W/m2
15:40 79.5 °F /  26.4 °C 58.1 °F /  14.5 °C 29.94in /  1013.8hPa West 12mph /  19.3km/h 22mph /  35.4km/h 48% 0.00in /  0mm 685 W/m2
15:50 79.9 °F /  26.6 °C 58.4 °F /  14.7 °C 29.94in /  1013.8hPa WSW 9mph /  14.5km/h 18mph /  29km/h 48% 0.00in /  0mm 659 W/m2
16:00 80.2 °F /  26.8 °C 58.2 °F /  14.6 °C 29.93in /  1013.4hPa West 7mph /  11.3km/h 16mph /  25.7km/h 47% 0.00in /  0mm 631 W/m2
16:10 79.9 °F /  26.6 °C 56.7 °F /  13.7 °C 29.94in /  1013.8hPa WNW 9mph /  14.5km/h 19mph /  30.6km/h 45% 0.00in /  0mm 603 W/m2
16:20 80.1 °F /  26.7 °C 58 °F /  14.4 °C 29.94in /  1013.8hPa WNW 6mph /  9.7km/h 17mph /  27.4km/h 47% 0.00in /  0mm 575 W/m2
16:30 80.1 °F /  26.7 °C 58 °F /  14.4 °C 29.94in /  1013.8hPa NW 6mph /  9.7km/h 14mph /  22.5km/h 47% 0.00in /  0mm 532 W/m2
16:40 79.9 °F /  26.6 °C 58.4 °F /  14.7 °C 29.93in /  1013.4hPa WNW 6mph /  9.7km/h 17mph /  27.4km/h 48% 0.00in /  0mm 516 W/m2
16:50 80.2 °F /  26.8 °C 58.2 °F /  14.6 °C 29.93in /  1013.4hPa NW 8mph /  12.9km/h 17mph /  27.4km/h 47% 0.00in /  0mm 486 W/m2
17:00 79.8 °F /  26.6 °C 57.1 °F /  13.9 °C 29.93in /  1013.4hPa WNW 8mph /  12.9km/h 15mph /  24.1km/h 46% 0.00in /  0mm 282 W/m2
17:10 79.3 °F /  26.3 °C 57.4 °F /  14.1 °C 29.93in /  1013.4hPa NW 6mph /  9.7km/h 13mph /  20.9km/h 47% 0.00in /  0mm 386 W/m2
17:20 79.3 °F /  26.3 °C 57.4 °F /  14.1 °C 29.93in /  1013.4hPa NNW 3mph /  4.8km/h 11mph /  17.7km/h 47% 0.00in /  0mm 182 W/m2
17:30 78.3 °F /  25.7 °C 56.4 °F /  13.6 °C 29.93in /  1013.4hPa NW 5mph /  8km/h 14mph /  22.5km/h 47% 0.00in /  0mm 104 W/m2
17:40 77.4 °F /  25.2 °C 55.6 °F /  13.1 °C 29.93in /  1013.4hPa NW 7mph /  11.3km/h 13mph /  20.9km/h 47% 0.00in /  0mm 249 W/m2
17:50 77 °F /  25 °C 55.8 °F /  13.2 °C 29.93in /  1013.4hPa NW 5mph /  8km/h 11mph /  17.7km/h 48% 0.00in /  0mm 158 W/m2
18:00 76.4 °F /  24.7 °C 55.8 °F /  13.2 °C 29.93in /  1013.4hPa NW 3mph /  4.8km/h 13mph /  20.9km/h 49% 0.00in /  0mm 223 W/m2
18:10 76.3 °F /  24.6 °C 55.7 °F /  13.2 °C 29.94in /  1013.8hPa NNW 5mph /  8km/h 12mph /  19.3km/h 49% 0.00in /  0mm 193 W/m2
18:20 76.5 °F /  24.7 °C 55.3 °F /  12.9 °C 29.93in /  1013.4hPa NNW 6mph /  9.7km/h 12mph /  19.3km/h 48% 0.00in /  0mm 175 W/m2
18:30 76.3 °F /  24.6 °C 55.1 °F /  12.8 °C 29.93in /  1013.4hPa NNW 7mph /  11.3km/h 15mph /  24.1km/h 48% 0.00in /  0mm 154 W/m2
18:40 76.1 °F /  24.5 °C 54.4 °F /  12.4 °C 29.93in /  1013.4hPa NNW 7mph /  11.3km/h 12mph /  19.3km/h 47% 0.00in /  0mm 125 W/m2
18:50 75.7 °F /  24.3 °C 54.1 °F /  12.3 °C 29.94in /  1013.8hPa NNW 6mph /  9.7km/h 9mph /  14.5km/h 47% 0.00in /  0mm 100 W/m2
19:00 75.4 °F /  24.1 °C 54.3 °F /  12.4 °C 29.94in /  1013.8hPa NNW 5mph /  8km/h 10mph /  16.1km/h 48% 0.00in /  0mm 74 W/m2
19:10 74.8 °F /  23.8 °C 53.8 °F /  12.1 °C 29.94in /  1013.8hPa NNW 5mph /  8km/h 10mph /  16.1km/h 48% 0.00in /  0mm 54 W/m2
19:20 74.3 °F /  23.5 °C 53.3 °F /  11.8 °C 29.93in /  1013.4hPa North 5mph /  8km/h 9mph /  14.5km/h 48% 0.00in /  0mm 38 W/m2
19:30 73.6 °F /  23.1 °C 53.3 °F /  11.8 °C 29.93in /  1013.4hPa North 3mph /  4.8km/h 7mph /  11.3km/h 49% 0.00in /  0mm 25 W/m2
19:40 72.9 °F /  22.7 °C 52.6 °F /  11.4 °C 29.93in /  1013.4hPa NNW 2mph /  3.2km/h 7mph /  11.3km/h 49% 0.00in /  0mm 14 W/m2
19:50 72.2 °F /  22.3 °C 52.5 °F /  11.4 °C 29.94in /  1013.8hPa NNW 3mph /  4.8km/h 5mph /  8km/h 50% 0.00in /  0mm 6 W/m2
20:00 71.4 °F /  21.9 °C 51.8 °F /  11 °C 29.94in /  1013.8hPa NNW 3mph /  4.8km/h 7mph /  11.3km/h 50% 0.00in /  0mm 0 W/m2
20:10 71.1 °F /  21.7 °C 52.6 °F /  11.4 °C 29.94in /  1013.8hPa Calm   6mph /  9.7km/h 52% 0.00in /  0mm 0 W/m2
20:20 69.8 °F /  21 °C 52.9 °F /  11.6 °C 29.94in /  1013.8hPa SSE 1mph /  1.6km/h 5mph /  8km/h 55% 0.00in /  0mm 0 W/m2
20:30 68.8 °F /  20.4 °C 53.4 °F /  11.9 °C 29.94in /  1013.8hPa SW 1mph /  1.6km/h 3mph /  4.8km/h 58% 0.00in /  0mm 0 W/m2
20:40 67.9 °F /  19.9 °C 52.5 °F /  11.4 °C 29.94in /  1013.8hPa West 2mph /  3.2km/h 3mph /  4.8km/h 58% 0.00in /  0mm 0 W/m2
20:50 66.9 °F /  19.4 °C 52.1 °F /  11.2 °C 29.95in /  1014.1hPa WSW 2mph /  3.2km/h 5mph /  8km/h 59% 0.00in /  0mm 0 W/m2
21:00 65.8 °F /  18.8 °C 52.5 °F /  11.4 °C 29.95in /  1014.1hPa WSW 1mph /  1.6km/h 3mph /  4.8km/h 62% 0.00in /  0mm 0 W/m2
21:10 64.8 °F /  18.2 °C 52.4 °F /  11.3 °C 29.95in /  1014.1hPa West 3mph /  4.8km/h 5mph /  8km/h 64% 0.00in /  0mm 0 W/m2
21:20 63.9 °F /  17.7 °C 51.9 °F /  11.1 °C 29.95in /  1014.1hPa West 2mph /  3.2km/h 5mph /  8km/h 65% 0.00in /  0mm 0 W/m2
21:30 63.3 °F /  17.4 °C 52.2 °F /  11.2 °C 29.96in /  1014.4hPa West 2mph /  3.2km/h 6mph /  9.7km/h 67% 0.00in /  0mm 0 W/m2
21:40 62.6 °F /  17 °C 51.9 °F /  11.1 °C 29.96in /  1014.4hPa West 1mph /  1.6km/h 5mph /  8km/h 68% 0.00in /  0mm 0 W/m2
21:50 62.1 °F /  16.7 °C 51.4 °F /  10.8 °C 29.96in /  1014.4hPa West 1mph /  1.6km/h 2mph /  3.2km/h 68% 0.00in /  0mm 0 W/m2
22:00 61.4 °F /  16.3 °C 51.1 °F /  10.6 °C 29.96in /  1014.4hPa SW 1mph /  1.6km/h 4mph /  6.4km/h 69% 0.00in /  0mm 0 W/m2
22:10 60.8 °F /  16 °C 51 °F /  10.6 °C 29.96in /  1014.4hPa Calm   2mph /  3.2km/h 70% 0.00in /  0mm 0 W/m2
22:20 60.1 °F /  15.6 °C 50.3 °F /  10.2 °C 29.96in /  1014.4hPa West 1mph /  1.6km/h 2mph /  3.2km/h 70% 0.00in /  0mm 0 W/m2
22:30 59.5 °F /  15.3 °C 50.5 °F /  10.3 °C 29.96in /  1014.4hPa Calm   2mph /  3.2km/h 72% 0.00in /  0mm 0 W/m2
22:40 58.8 °F /  14.9 °C 50.1 °F /  10.1 °C 29.96in /  1014.4hPa Calm   2mph /  3.2km/h 73% 0.00in /  0mm 0 W/m2
22:50 58.1 °F /  14.5 °C 49.5 °F /  9.7 °C 29.96in /  1014.4hPa North 1mph /  1.6km/h 2mph /  3.2km/h 73% 0.00in /  0mm 0 W/m2
23:00 57.8 °F /  14.3 °C 49.5 °F /  9.7 °C 29.96in /  1014.4hPa West 1mph /  1.6km/h 3mph /  4.8km/h 74% 0.00in /  0mm 0 W/m2
23:10 57.2 °F /  14 °C 49 °F /  9.4 °C 29.96in /  1014.4hPa West 1mph /  1.6km/h 2mph /  3.2km/h 74% 0.00in /  0mm 0 W/m2
23:20 56.7 °F /  13.7 °C 48.9 °F /  9.4 °C 29.97in /  1014.8hPa NW 1mph /  1.6km/h 2mph /  3.2km/h 75% 0.00in /  0mm 0 W/m2
23:30 56.1 °F /  13.4 °C 48.3 °F /  9.1 °C 29.97in /  1014.8hPa WNW 1mph /  1.6km/h 3mph /  4.8km/h 75% 0.00in /  0mm 0 W/m2
23:40 55.8 °F /  13.2 °C 48.7 °F /  9.3 °C 29.97in /  1014.8hPa NW 1mph /  1.6km/h 2mph /  3.2km/h 77% 0.00in /  0mm 0 W/m2
23:50 55.6 °F /  13.1 °C 48.5 °F /  9.2 °C 29.97in /  1014.8hPa NW 1mph /  1.6km/h 3mph /  4.8km/h 77% 0.00in /  0mm 0 W/m2
Knjazevac, Serbia
Compliments of Weather Underground - 2 mb